Time;durP1;ratioP1;P1;durP2;ratioP2;P2;SDS_P1;SDS_P2;PMS_P1;PMS_P2;Temp;Humidity;BMP_temperature;BMP_pressure;BME280_temperature;BME280_humidity;BME280_pressure;Samples;Min_cycle;Max_cycle;Signal;HPM_P1;HPM_P2
2021/04/05 00:00:09;;;;;;;15.10;7.57;;;;;;;4.37;79.86;100004.66;4975145;28;20536;-94
2021/04/05 00:02:36;;;;;;;14.87;7.23;;;;;;;4.38;79.61;100003.78;4993492;28;20026;-94
2021/04/05 00:05:12;;;;;;;16.47;7.90;;;;;;;4.41;80.00;99989.81;4997291;28;20057;-94
2021/04/05 00:07:43;;;;;;;15.87;8.13;;;;;;;4.40;79.49;99985.47;5008362;28;20026;-95
2021/04/05 00:10:11;;;;;;;17.73;9.50;;;;;;;4.34;80.15;99967.19;4982307;28;20150;-94
2021/04/05 00:12:41;;;;;;;15.50;7.93;;;;;;;4.32;79.99;99967.22;4994853;28;20053;-94
2021/04/05 00:15:10;;;;;;;20.10;8.83;;;;;;;4.25;80.80;99952.44;4977714;28;20039;-93
2021/04/05 00:17:40;;;;;;;16.53;8.73;;;;;;;4.27;80.54;99953.28;4976995;28;20172;-94
2021/04/05 00:20:17;;;;;;;18.33;8.17;;;;;;;4.19;80.89;99953.31;4976069;28;20050;-93
2021/04/05 00:22:44;;;;;;;15.70;9.23;;;;;;;4.17;81.02;99947.25;4978941;28;20049;-94
2021/04/05 00:25:12;;;;;;;16.67;8.23;;;;;;;4.16;81.14;99926.34;4996227;28;20278;-95
2021/04/05 00:27:41;;;;;;;16.17;9.37;;;;;;;4.11;81.94;99920.25;4993982;28;20034;-94
2021/04/05 00:30:19;;;;;;;18.03;9.00;;;;;;;4.04;81.85;99915.97;4983674;28;20042;-92
2021/04/05 00:32:49;;;;;;;19.47;9.23;;;;;;;4.00;81.92;99919.47;4976770;28;20030;-94
2021/04/05 00:35:20;;;;;;;16.67;8.50;;;;;;;3.87;83.03;99905.63;4991600;28;20030;-94
2021/04/05 00:37:51;;;;;;;22.77;9.60;;;;;;;3.88;82.49;99905.59;4990204;28;20034;-94
2021/04/05 00:40:38;;;;;;;14.63;9.07;;;;;;;3.79;83.18;99896.94;4974988;28;20054;-94
2021/04/05 00:43:05;;;;;;;19.17;9.10;;;;;;;3.77;83.54;99886.47;4977703;28;20037;-93
2021/04/05 00:45:35;;;;;;;19.50;10.57;;;;;;;3.72;83.80;99883.03;4980170;28;20034;-94
2021/04/05 00:48:03;;;;;;;15.40;9.13;;;;;;;3.68;83.85;99879.56;5000478;28;20045;-95
2021/04/05 00:50:38;;;;;;;15.83;9.40;;;;;;;3.65;84.22;99865.66;4976559;28;20031;-95
2021/04/05 00:53:08;;;;;;;16.30;8.80;;;;;;;3.63;83.95;99857.84;4986689;28;20050;-94
2021/04/05 00:55:37;;;;;;;16.77;8.60;;;;;;;3.64;84.19;99866.53;5008039;28;20034;-95
2021/04/05 00:58:06;;;;;;;15.80;8.87;;;;;;;3.58;85.40;99851.75;5009149;28;20061;-93
2021/04/05 01:00:38;;;;;;;14.03;8.03;;;;;;;3.59;85.11;99834.34;4987216;28;20046;-93
2021/04/05 01:03:05;;;;;;;15.07;8.53;;;;;;;3.66;84.61;99826.47;4995154;28;20053;-93
2021/04/05 01:05:32;;;;;;;16.43;9.47;;;;;;;3.60;84.88;99820.41;4991403;28;20058;-94
2021/04/05 01:07:59;;;;;;;15.23;7.57;;;;;;;3.55;85.31;99794.34;4986503;28;20070;-94
2021/04/05 01:10:27;;;;;;;14.30;7.60;;;;;;;3.57;85.55;99795.19;5008546;28;20242;-93
2021/04/05 01:12:54;;;;;;;15.53;8.50;;;;;;;3.55;85.58;99783.88;4977989;28;20077;-92
2021/04/05 01:15:20;;;;;;;14.13;8.00;;;;;;;3.48;85.91;99766.50;4994757;28;20109;-93
2021/04/05 01:17:50;;;;;;;13.20;7.60;;;;;;;3.48;85.36;99756.06;4977678;28;20050;-93
2021/04/05 01:20:22;;;;;;;13.90;7.90;;;;;;;3.44;86.18;99741.28;4988907;28;20415;-94
2021/04/05 01:22:53;;;;;;;21.07;9.47;;;;;;;3.45;86.39;99731.72;4961134;28;20057;-93
2021/04/05 01:25:20;;;;;;;11.00;7.77;;;;;;;3.42;86.24;99724.78;4977032;28;20035;-93
2021/04/05 01:27:53;;;;;;;17.37;9.30;;;;;;;3.42;86.35;99726.50;4978306;28;20046;-94
2021/04/05 01:30:50;;;;;;;12.63;7.17;;;;;;;3.42;86.19;99703.88;4977358;28;20061;-93
2021/04/05 01:33:18;;;;;;;15.30;8.40;;;;;;;3.43;86.43;99683.84;4985124;28;20042;-94
2021/04/05 01:36:04;;;;;;;13.23;7.70;;;;;;;3.45;86.37;99684.72;4977947;28;20036;-92
2021/04/05 01:38:56;;;;;;;13.33;8.60;;;;;;;3.42;86.20;99659.50;5003772;28;20057;-93
2021/04/05 01:41:24;;;;;;;13.17;8.33;;;;;;;3.38;86.85;99658.66;4981497;28;20043;-93
2021/04/05 01:43:51;;;;;;;14.03;7.30;;;;;;;3.40;86.35;99656.03;4980747;28;20074;-95
2021/04/05 01:46:18;;;;;;;13.33;7.63;;;;;;;3.42;86.31;99659.50;4989297;28;20046;-92
2021/04/05 01:48:45;;;;;;;11.57;7.30;;;;;;;3.43;86.20;99631.63;4973495;28;20049;-93
2021/04/05 01:51:19;;;;;;;13.93;7.67;;;;;;;3.38;86.84;99619.50;4988002;28;20097;-93
2021/04/05 01:53:47;;;;;;;14.10;7.60;;;;;;;3.39;86.58;99612.53;4974041;28;20081;-94
2021/04/05 01:56:16;;;;;;;15.87;8.77;;;;;;;3.46;86.47;99610.75;4972276;28;20046;-93
2021/04/05 01:58:45;;;;;;;13.97;8.07;;;;;;;3.50;85.93;99604.59;4981920;28;20042;-94
2021/04/05 02:01:15;;;;;;;15.03;8.23;;;;;;;3.47;85.84;99595.06;4986056;28;20050;-93
2021/04/05 02:03:41;;;;;;;12.17;7.53;;;;;;;3.41;86.33;99587.28;4975795;28;20026;-93
2021/04/05 02:06:30;;;;;;;15.83;7.83;;;;;;;3.43;86.08;99579.41;4982265;28;20039;-92
2021/04/05 02:08:57;;;;;;;14.93;7.97;;;;;;;3.47;85.76;99583.75;4993784;28;20054;-94
2021/04/05 02:11:29;;;;;;;15.27;7.90;;;;;;;3.41;86.31;99575.97;4992397;28;20047;-95
2021/04/05 02:14:00;;;;;;;19.23;8.90;;;;;;;3.47;85.73;99558.50;4984347;28;20058;-93
2021/04/05 02:16:28;;;;;;;13.87;8.10;;;;;;;3.45;86.20;99560.28;4993181;28;20049;-94
2021/04/05 02:18:57;;;;;;;11.80;8.03;;;;;;;3.43;85.96;99548.97;4985777;28;20057;-94
2021/04/05 02:21:27;;;;;;;12.63;7.80;;;;;;;3.43;85.45;99535.91;4988431;28;20030;-93
2021/04/05 02:24:00;;;;;;;17.23;8.57;;;;;;;3.40;85.98;99541.16;4974101;28;20046;-94
2021/04/05 02:26:28;;;;;;;15.53;9.10;;;;;;;3.38;86.22;99528.13;4992500;28;20058;-94
2021/04/05 02:29:00;;;;;;;16.73;8.97;;;;;;;3.32;86.58;99511.66;4977214;28;20038;-94
2021/04/05 02:31:29;;;;;;;18.03;9.17;;;;;;;3.33;86.42;99498.56;4990302;28;20046;-93
2021/04/05 02:34:03;;;;;;;16.87;10.27;;;;;;;3.34;86.42;99502.06;4973099;28;20038;-95
2021/04/05 02:36:31;;;;;;;18.63;9.50;;;;;;;3.27;86.90;99496.03;4983113;28;20057;-96
2021/04/05 02:39:03;;;;;;;19.07;9.97;;;;;;;3.32;86.31;99491.63;4994962;28;20065;-94
2021/04/05 02:41:32;;;;;;;21.83;11.70;;;;;;;3.27;87.02;99495.16;4975307;28;20045;-93
2021/04/05 02:43:58;;;;;;;17.47;10.23;;;;;;;3.24;87.16;99476.94;4974460;28;20042;-93
2021/04/05 02:46:30;;;;;;;20.97;11.20;;;;;;;3.29;86.91;99469.94;4977065;28;20038;-93
2021/04/05 02:48:58;;;;;;;23.93;12.73;;;;;;;3.25;86.86;99469.06;4994393;28;20197;-93
2021/04/05 02:51:28;;;;;;;19.90;11.47;;;;;;;3.32;86.37;99456.84;4975604;28;20039;-95
2021/04/05 02:53:58;;;;;;;22.90;12.30;;;;;;;3.25;86.80;99463.84;4981094;28;20141;-94
2021/04/05 02:56:25;;;;;;;21.80;12.17;;;;;;;3.27;86.41;99467.31;4994461;28;20049;-93
2021/04/05 02:58:53;;;;;;;23.20;11.60;;;;;;;3.20;87.38;99475.25;4991507;28;20070;-93
2021/04/05 03:01:20;;;;;;;23.30;11.87;;;;;;;3.27;86.30;99464.69;4980458;28;20031;-93
2021/04/05 03:03:49;;;;;;;23.53;11.50;;;;;;;3.21;86.93;99470.00;4973792;28;20039;-93
2021/04/05 03:06:18;;;;;;;24.23;12.73;;;;;;;3.18;86.88;99475.22;4995072;28;20045;-93
2021/04/05 03:08:48;;;;;;;22.43;12.43;;;;;;;3.18;86.75;99467.41;4977447;28;20058;-93
2021/04/05 03:11:17;;;;;;;24.23;13.47;;;;;;;3.11;87.67;99452.69;4972632;28;20061;-93
2021/04/05 03:13:46;;;;;;;23.83;13.30;;;;;;;3.18;87.18;99430.88;4986162;28;20113;-92
2021/04/05 03:16:17;;;;;;;26.47;13.70;;;;;;;3.26;86.63;99433.41;4976612;28;20122;-94
2021/04/05 03:18:47;;;;;;;21.60;12.43;;;;;;;3.18;86.97;99428.25;4989536;28;20039;-93
2021/04/05 03:21:14;;;;;;;24.83;12.30;;;;;;;3.26;86.39;99418.59;4989451;28;20069;-94
2021/04/05 03:23:55;;;;;;;27.53;12.80;;;;;;;3.23;86.52;99391.69;4976396;28;20041;-95
2021/04/05 03:26:21;;;;;;;22.17;12.97;;;;;;;3.23;86.83;99396.91;5015813;28;20089;-73
2021/04/05 03:28:47;;;;;;;21.20;12.47;;;;;;;3.17;87.05;99396.97;5018963;28;20041;-73
2021/04/05 03:31:18;;;;;;;25.83;14.03;;;;;;;3.16;87.25;99385.66;4998481;28;20049;-74
2021/04/05 03:33:54;;;;;;;26.93;12.63;;;;;;;3.10;87.13;99375.28;5020845;28;20044;-73
2021/04/05 03:36:25;;;;;;;23.07;12.90;;;;;;;3.07;87.40;99370.97;5015990;28;20110;-73
2021/04/05 03:38:51;;;;;;;26.10;13.47;;;;;;;3.08;87.49;99362.25;4987729;28;20771;-73
2021/04/05 03:41:31;;;;;;;25.37;12.70;;;;;;;3.16;86.40;99359.56;5008538;28;20209;-73
2021/04/05 03:44:02;;;;;;;24.53;13.40;;;;;;;3.14;86.53;99344.81;5011930;28;20064;-73
2021/04/05 03:46:36;;;;;;;29.97;14.47;;;;;;;3.13;86.81;99335.25;5014876;28;20041;-73
2021/04/05 03:49:09;;;;;;;30.23;14.93;;;;;;;3.13;86.57;99345.69;5010873;28;20565;-73
2021/04/05 03:51:41;;;;;;;33.67;16.57;;;;;;;3.12;86.42;99331.78;5003067;28;20077;-73
2021/04/05 03:54:08;;;;;;;33.60;17.43;;;;;;;3.15;86.38;99325.66;5020183;28;20025;-73
2021/04/05 03:56:43;;;;;;;31.10;16.00;;;;;;;3.12;86.24;99333.53;5019405;28;20506;-73
2021/04/05 03:59:21;;;;;;;35.03;17.77;;;;;;;3.14;85.86;99319.59;4998210;28;20442;-73
2021/04/05 04:01:53;;;;;;;36.30;16.83;;;;;;;3.12;86.30;99310.91;4999148;28;20050;-73
2021/04/05 04:04:30;;;;;;;34.97;17.83;;;;;;;3.16;86.17;99322.16;5013067;28;20033;-74
2021/04/05 04:09:34;;;;;;;38.37;18.83;;;;;;;3.22;85.17;99293.41;5029985;28;20284;-73
2021/04/05 04:12:01;;;;;;;38.43;18.03;;;;;;;3.20;85.14;99292.56;5007375;28;20683;-73
2021/04/05 04:14:27;;;;;;;34.60;17.33;;;;;;;3.19;85.64;99293.41;5019357;28;20637;-73
2021/04/05 04:16:54;;;;;;;40.77;19.17;;;;;;;3.18;85.52;99263.84;5003848;28;20053;-74
2021/04/05 04:19:21;;;;;;;37.53;19.00;;;;;;;3.23;85.58;99249.00;5019870;28;20095;-73
2021/04/05 04:21:48;;;;;;;39.17;20.73;;;;;;;3.20;85.31;99256.88;5020177;28;20064;-73
2021/04/05 04:24:15;;;;;;;38.47;18.73;;;;;;;3.15;85.73;99248.25;5034452;28;20065;-73
2021/04/05 04:26:42;;;;;;;37.90;19.03;;;;;;;3.21;85.56;99250.78;5000858;28;20100;-73
2021/04/05 04:29:14;;;;;;;41.50;21.53;;;;;;;3.26;84.99;99246.34;5006631;28;20069;-73
2021/04/05 04:31:41;;;;;;;42.03;20.23;;;;;;;3.21;85.11;99237.72;5009298;28;20046;-73
2021/04/05 04:34:07;;;;;;;39.20;19.67;;;;;;;3.21;85.07;99242.94;5005019;28;20034;-73
2021/04/05 04:36:34;;;;;;;40.63;20.73;;;;;;;3.22;85.06;99238.59;5020499;28;20117;-73
2021/04/05 04:39:00;;;;;;;41.27;21.50;;;;;;;3.28;84.72;99239.38;5018790;28;20028;-73
2021/04/05 04:41:28;;;;;;;42.70;20.00;;;;;;;3.29;84.78;99229.78;5009806;28;20042;-73
2021/04/05 04:44:00;;;;;;;42.53;20.10;;;;;;;3.33;84.29;99205.34;5025649;28;20487;-74
2021/04/05 04:46:27;;;;;;;39.00;19.20;;;;;;;3.29;84.35;99194.13;5022078;28;20407;-73
2021/04/05 04:49:07;;;;;;;45.37;21.57;;;;;;;3.34;84.14;99173.16;5020019;28;20042;-75
2021/04/05 04:51:33;;;;;;;38.50;21.13;;;;;;;3.35;84.24;99177.47;5020576;28;20042;-74
2021/04/05 04:54:02;;;;;;;42.73;20.60;;;;;;;3.34;83.80;99163.56;5001428;28;20090;-75
2021/04/05 04:56:29;;;;;;;37.53;18.50;;;;;;;3.39;83.81;99163.50;5011730;28;20091;-72
2021/04/05 04:58:59;;;;;;;45.73;22.07;;;;;;;3.37;84.03;99160.06;4997585;28;20452;-75
2021/04/05 05:01:27;;;;;;;42.10;20.33;;;;;;;3.37;83.74;99165.28;5011278;28;20041;-74
2021/04/05 05:03:57;;;;;;;46.27;21.90;;;;;;;3.47;83.50;99160.78;4998955;28;20037;-74
2021/04/05 05:06:24;;;;;;;41.57;20.97;;;;;;;3.55;82.75;99154.56;4980609;28;20076;-74
2021/04/05 05:08:51;;;;;;;38.30;20.70;;;;;;;3.54;82.60;99141.53;5032586;28;20068;-75
2021/04/05 05:11:17;;;;;;;38.50;20.70;;;;;;;3.55;82.68;99138.03;5009699;28;20550;-75
2021/04/05 05:13:44;;;;;;;40.27;18.93;;;;;;;3.54;83.17;99136.31;4993922;28;20047;-75
2021/04/05 05:16:10;;;;;;;41.47;21.40;;;;;;;3.65;82.34;99129.13;5016686;28;20050;-74
2021/04/05 05:18:37;;;;;;;40.57;20.57;;;;;;;3.65;82.35;99140.44;5005230;28;20037;-74
2021/04/05 05:21:09;;;;;;;37.93;18.57;;;;;;;3.69;81.96;99136.03;5051693;28;20048;-74
2021/04/05 05:23:36;;;;;;;37.53;19.63;;;;;;;3.71;82.08;99123.81;5019915;28;20041;-74
2021/04/05 05:26:03;;;;;;;35.63;18.90;;;;;;;3.80;81.83;99110.59;5024576;28;20108;-74
2021/04/05 05:28:31;;;;;;;41.50;19.70;;;;;;;3.84;81.88;99104.41;4985758;28;20084;-74
2021/04/05 05:30:58;;;;;;;38.63;18.93;;;;;;;3.85;81.41;99084.38;5020937;28;20045;-74
2021/04/05 05:33:25;;;;;;;38.27;18.60;;;;;;;3.88;81.57;99093.03;5032210;28;20037;-74
2021/04/05 05:35:52;;;;;;;35.60;18.20;;;;;;;3.97;80.85;99078.06;5032738;28;20193;-74
2021/04/05 05:38:21;;;;;;;37.83;18.73;;;;;;;3.93;81.26;99072.88;5014146;28;20671;-75
2021/04/05 05:40:48;;;;;;;37.93;18.40;;;;;;;4.00;80.81;99080.63;5008784;28;20077;-74
2021/04/05 05:43:14;;;;;;;37.10;17.97;;;;;;;4.01;80.94;99071.88;5026968;28;20056;-74
2021/04/05 05:45:44;;;;;;;34.70;19.23;;;;;;;4.03;81.40;99072.72;5032067;28;20038;-74
2021/04/05 05:48:14;;;;;;;38.53;18.13;;;;;;;4.11;80.81;99065.56;5024788;28;20076;-73
2021/04/05 05:51:10;;;;;;;32.80;17.53;;;;;;;4.08;81.43;99076.09;5028279;28;20053;-73
2021/04/05 05:53:43;;;;;;;39.73;19.37;;;;;;;4.13;81.24;99064.69;5009792;28;20045;-73
2021/04/05 05:56:43;;;;;;;40.60;18.80;;;;;;;4.18;80.58;99052.38;5030643;28;20041;-73
2021/04/05 05:59:16;;;;;;;36.70;18.07;;;;;;;4.23;80.57;99052.28;5001286;28;20044;-73
2021/04/05 06:01:54;;;;;;;39.97;19.07;;;;;;;4.30;80.35;99035.59;5014261;28;20099;-72
2021/04/05 06:05:02;;;;;;;32.03;18.70;;;;;;;4.37;80.61;99028.44;5017751;28;20051;-75
2021/04/05 06:07:59;;;;;;;38.43;18.30;;;;;;;4.39;80.25;99027.53;5012303;28;20095;-75
2021/04/05 06:10:44;;;;;;;33.63;17.47;;;;;;;4.38;80.32;99012.75;5024274;28;20030;-72
2021/04/05 06:13:33;;;;;;;39.07;18.07;;;;;;;4.43;81.30;99010.00;5023958;28;20044;-73
2021/04/05 06:16:24;;;;;;;37.80;18.43;;;;;;;4.42;81.76;98992.59;5020462;28;20041;-73
2021/04/05 06:18:59;;;;;;;42.57;19.23;;;;;;;4.37;83.75;99005.81;5017011;28;20045;-72
2021/04/05 06:21:37;;;;;;;42.17;19.33;;;;;;;4.32;84.43;99007.66;4993919;28;20041;-73
2021/04/05 06:24:09;;;;;;;38.00;17.80;;;;;;;4.24;85.46;98991.25;4992488;28;20100;-73
2021/04/05 06:27:00;;;;;;;38.37;19.60;;;;;;;4.21;87.88;98996.56;5011996;28;20037;-73
2021/04/05 06:29:41;;;;;;;40.53;19.23;;;;;;;4.18;88.13;98988.78;5029651;28;20045;-72
2021/04/05 06:32:33;;;;;;;39.63;20.00;;;;;;;4.09;89.97;98986.34;5007968;28;20069;-73
2021/04/05 06:34:59;;;;;;;40.67;19.00;;;;;;;4.06;90.13;98971.63;4980359;28;20543;-74
2021/04/05 06:37:36;;;;;;;39.60;19.23;;;;;;;4.01;91.30;98963.00;5019912;28;20049;-75
2021/04/05 06:40:06;;;;;;;45.00;21.47;;;;;;;4.02;91.63;98962.09;5015769;28;20038;-76
2021/04/05 06:42:46;;;;;;;42.37;20.17;;;;;;;4.00;92.21;98963.03;5021108;28;20111;-75
2021/04/05 06:45:28;;;;;;;39.47;20.17;;;;;;;4.02;93.19;98958.63;5022773;28;20033;-74
2021/04/05 06:48:17;;;;;;;39.97;20.47;;;;;;;4.08;93.63;98955.91;5026243;28;20053;-75
2021/04/05 06:50:44;;;;;;;40.47;20.77;;;;;;;4.05;93.14;98954.22;5029979;28;20188;-74
2021/04/05 06:53:48;;;;;;;42.63;20.00;;;;;;;4.01;94.21;98949.94;5011712;28;20038;-74
2021/04/05 06:56:25;;;;;;;40.30;20.17;;;;;;;4.07;94.04;98948.94;5023698;28;20049;-74
2021/04/05 06:59:36;;;;;;;46.17;21.33;;;;;;;3.99;95.01;98929.97;4996938;28;20132;-75
2021/04/05 07:02:30;;;;;;;45.00;21.73;;;;;;;3.98;96.65;98946.53;5012089;28;20064;-75
2021/04/05 07:05:09;;;;;;;40.90;21.33;;;;;;;3.97;97.12;98936.97;5014826;28;20065;-75
2021/04/05 07:07:56;;;;;;;39.87;21.27;;;;;;;3.96;97.52;98930.91;5006976;28;20300;-75
2021/04/05 07:10:27;;;;;;;41.13;20.77;;;;;;;3.93;98.22;98939.63;5028315;28;20072;-75
2021/04/05 07:13:06;;;;;;;37.60;21.13;;;;;;;3.97;99.21;98935.22;5025093;28;20088;-75
2021/04/05 07:15:39;;;;;;;42.13;20.67;;;;;;;3.93;99.50;98934.41;5022461;28;20053;-75
2021/04/05 07:18:14;;;;;;;43.47;21.20;;;;;;;3.96;99.96;98933.50;5018467;28;20049;-74
2021/04/05 07:20:59;;;;;;;45.73;23.37;;;;;;;3.91;100.00;98930.13;5024335;28;20046;-75
2021/04/05 07:23:56;;;;;;;45.07;23.47;;;;;;;3.91;100.00;98919.69;5024619;28;20135;-75
2021/04/05 07:26:35;;;;;;;43.97;21.47;;;;;;;3.91;100.00;98924.91;5026963;28;20049;-75
2021/04/05 07:29:03;;;;;;;42.00;21.57;;;;;;;3.87;100.00;98921.50;5019805;28;20042;-76
2021/04/05 07:31:48;;;;;;;46.37;22.37;;;;;;;3.91;100.00;98917.91;5004788;28;20141;-75
2021/04/05 07:34:25;;;;;;;44.60;22.63;;;;;;;3.83;100.00;98917.22;5015205;28;20041;-75
2021/04/05 07:37:23;;;;;;;46.13;22.93;;;;;;;3.79;100.00;98920.81;4996195;28;20536;-76
2021/04/05 07:40:17;;;;;;;48.60;24.73;;;;;;;3.79;100.00;98918.19;4989185;28;20060;-76
2021/04/05 07:42:50;;;;;;;45.17;23.10;;;;;;;3.84;100.00;98916.31;4992470;28;20054;-76
2021/04/05 07:45:49;;;;;;;46.57;21.97;;;;;;;3.84;100.00;98918.94;5009343;28;20078;-76
2021/04/05 07:48:30;;;;;;;51.87;25.10;;;;;;;3.78;100.00;98918.19;5003227;28;20046;-77
2021/04/05 07:51:16;;;;;;;49.07;24.37;;;;;;;3.72;100.00;98914.00;5016000;28;20112;-76
2021/04/05 07:53:49;;;;;;;52.87;25.90;;;;;;;3.75;100.00;98919.13;5017693;28;20053;-77
2021/04/05 07:56:22;;;;;;;50.27;26.17;;;;;;;3.75;100.00;98916.53;5021058;28;20041;-77
2021/04/05 07:59:26;;;;;;;44.87;24.33;;;;;;;3.76;100.00;98922.59;5014277;28;20041;-75
2021/04/05 08:02:10;;;;;;;49.13;24.83;;;;;;;3.77;100.00;98921.72;5025583;28;20048;-76
2021/04/05 08:04:58;;;;;;;49.70;24.67;;;;;;;3.76;100.00;98918.25;5016037;28;20679;-77
2021/04/05 08:07:53;;;;;;;48.03;24.67;;;;;;;3.78;100.00;98918.19;5015528;28;20033;-77
2021/04/05 08:10:25;;;;;;;48.08;26.45;;;;;;;3.75;100.00;98928.72;5023060;28;20038;-77
2021/04/05 08:13:26;;;;;;;52.13;24.07;;;;;;;3.75;100.00;98980.97;5023671;28;20453;-76
2021/04/05 08:16:04;;;;;;;33.43;17.90;;;;;;;3.50;100.00;99009.28;5007044;28;20092;-77
2021/04/05 08:18:42;;;;;;;14.87;6.87;;;;;;;2.52;100.00;99022.19;5029946;28;20091;-78
2021/04/05 08:21:19;;;;;;;9.00;4.57;;;;;;;2.09;100.00;99021.03;5022598;28;20041;-77
2021/04/05 08:24:01;;;;;;;9.40;5.30;;;;;;;1.94;100.00;99028.16;5028595;28;20565;-78
2021/04/05 08:26:37;;;;;;;7.57;4.03;;;;;;;1.93;100.00;99028.16;4999701;28;20092;-80
2021/04/05 08:29:13;;;;;;;8.67;4.10;;;;;;;1.86;100.00;99024.78;5006535;28;20113;-78
2021/04/05 08:31:49;;;;;;;7.00;3.40;;;;;;;1.78;100.00;99026.63;5022570;28;20060;-77
2021/04/05 08:34:47;;;;;;;9.20;3.30;;;;;;;1.63;100.00;99034.59;5021791;28;20124;-77
2021/04/05 08:37:44;;;;;;;6.03;3.60;;;;;;;1.66;100.00;99040.63;5005777;28;20088;-77
2021/04/05 08:40:32;;;;;;;5.53;3.80;;;;;;;1.61;100.00;99045.03;4988304;28;20104;-78
2021/04/05 08:43:18;;;;;;;7.27;3.50;;;;;;;1.64;100.00;99050.19;5023078;28;20045;-77
2021/04/05 08:46:15;;;;;;;6.67;2.80;;;;;;;1.68;100.00;99045.81;5025618;28;20267;-77
2021/04/05 08:48:48;;;;;;;4.80;2.53;;;;;;;1.74;100.00;99050.94;4980749;28;20042;-77
2021/04/05 08:51:17;;;;;;;4.60;2.30;;;;;;;1.68;100.00;99044.09;5004261;28;20080;-77
2021/04/05 08:53:53;;;;;;;3.73;2.00;;;;;;;1.74;100.00;99055.28;5023920;28;20554;-78
2021/04/05 08:56:20;;;;;;;3.27;2.00;;;;;;;1.68;100.00;99056.22;5029975;28;20033;-77
2021/04/05 08:58:54;;;;;;;4.83;1.83;;;;;;;1.77;100.00;99047.47;5023742;28;20072;-77
2021/04/05 09:01:29;;;;;;;3.88;1.85;;;;;;;1.77;100.00;99037.91;4994903;28;20049;-78
2021/04/05 09:03:56;;;;;;;3.47;1.47;;;;;;;1.65;100.00;99040.63;5023846;28;20061;-79
2021/04/05 09:06:32;;;;;;;2.80;1.20;;;;;;;1.74;100.00;99053.56;4999373;28;20388;-77
2021/04/05 09:08:59;;;;;;;3.10;1.40;;;;;;;1.94;100.00;99042.94;5026332;28;20065;-77
2021/04/05 09:11:25;;;;;;;2.13;1.20;;;;;;;2.10;100.00;99030.56;4984521;28;20046;-79
2021/04/05 09:13:58;;;;;;;3.13;1.33;;;;;;;2.19;100.00;99044.38;5017094;28;20042;-80
2021/04/05 09:16:43;;;;;;;3.00;1.50;;;;;;;2.39;100.00;99035.41;5008800;28;20072;-78
2021/04/05 09:19:36;;;;;;;4.15;1.10;;;;;;;2.38;100.00;99025.88;5015142;28;20248;-80
2021/04/05 09:22:34;;;;;;;3.07;1.53;;;;;;;2.36;100.00;99006.81;4995585;28;20046;-80
2021/04/05 09:25:03;;;;;;;4.07;2.37;;;;;;;2.39;100.00;99019.78;5012782;28;20038;-79
2021/04/05 09:27:41;;;;;;;4.93;1.93;;;;;;;2.56;100.00;99027.38;5013650;28;20041;-79
2021/04/05 11:25:52;;;;;;;0.27;0.27;;;;;;;2.22;97.82;99143.31;5025950;28;20348;-89
2021/04/05 11:28:23;;;;;;;0.35;0.20;;;;;;;2.13;96.81;99139.97;4977239;28;20086;-88
2021/04/05 11:30:57;;;;;;;1.60;0.83;;;;;;;2.08;98.65;99136.53;4992850;28;20072;-88
2021/04/05 11:33:24;;;;;;;0.60;0.40;;;;;;;2.21;99.29;99148.56;5011034;28;20128;-89
2021/04/05 11:35:52;;;;;;;0.67;0.40;;;;;;;2.30;98.04;99152.81;4994440;28;20414;-89
2021/04/05 11:38:19;;;;;;;0.30;0.30;;;;;;;2.18;95.79;99162.47;4976668;28;20129;-89
2021/04/05 11:40:57;;;;;;;0.20;0.20;;;;;;;2.35;95.07;99156.19;4986866;28;20092;-89
2021/04/05 11:43:28;;;;;;;0.47;0.40;;;;;;;2.00;93.70;99167.00;5001285;28;20041;-88
2021/04/05 11:46:20;;;;;;;0.53;0.40;;;;;;;2.14;96.46;99152.97;4979300;28;20049;-88
2021/04/05 11:49:00;;;;;;;0.90;0.80;;;;;;;2.44;97.23;99174.38;4997644;28;20045;-88
2021/04/05 11:51:28;;;;;;;0.57;0.43;;;;;;;2.41;92.02;99159.59;4973947;28;20565;-89
2021/04/05 11:54:01;;;;;;;1.47;0.60;;;;;;;2.72;92.95;99159.25;4978925;28;20054;-89
2021/04/05 11:56:29;;;;;;;0.80;0.40;;;;;;;2.65;89.70;99168.88;4989594;28;20044;-89
2021/04/05 11:59:14;;;;;;;1.60;0.70;;;;;;;2.80;90.86;99173.91;4996921;28;20042;-88
2021/04/05 12:02:00;;;;;;;1.03;0.60;;;;;;;3.20;91.33;99168.16;4996368;28;20041;-89
2021/04/05 12:04:41;;;;;;;1.47;0.70;;;;;;;3.52;87.19;99157.19;4999237;28;20069;-89
2021/04/05 12:07:19;;;;;;;0.70;0.60;;;;;;;3.68;83.69;99147.34;4989202;28;20037;-88
2021/04/05 12:09:53;;;;;;;1.30;0.43;;;;;;;3.59;83.83;99129.25;4979975;28;20177;-89
2021/04/05 12:12:23;;;;;;;0.97;0.50;;;;;;;3.87;84.61;99130.50;5001699;28;20078;-89
2021/04/05 12:20:19;;;;;;;1.53;0.67;;;;;;;4.81;75.23;99132.13;5013864;28;20110;-88
2021/04/05 12:22:45;;;;;;;1.43;1.13;;;;;;;5.44;69.81;99128.06;5013698;28;20382;-89
2021/04/05 12:25:12;;;;;;;0.67;0.50;;;;;;;6.27;72.30;99129.44;4981677;28;20049;-89
2021/04/05 12:27:39;;;;;;;3.57;1.47;;;;;;;6.43;72.15;99125.50;4975087;28;20041;-89
2021/04/05 12:30:24;;;;;;;4.17;0.70;;;;;;;7.23;66.76;99116.97;4982787;28;20665;-89
2021/04/05 12:32:53;;;;;;;1.53;0.60;;;;;;;9.37;64.54;99117.19;5000240;28;20146;-89
2021/04/05 12:35:21;;;;;;;1.80;0.60;;;;;;;8.44;54.79;99116.38;4997917;28;20041;-89
2021/04/05 12:37:55;;;;;;;3.97;1.70;;;;;;;10.46;52.59;99108.19;4998512;28;20049;-89
2021/04/05 12:40:24;;;;;;;1.20;0.60;;;;;;;10.15;54.91;99125.34;4986623;28;20052;-89
2021/04/05 12:42:51;;;;;;;0.60;0.45;;;;;;;9.50;46.06;99113.16;4995706;28;20057;-91
2021/04/05 12:45:29;;;;;;;1.58;0.50;;;;;;;9.21;51.42;99129.25;5002214;28;20070;-91
2021/04/05 14:14:36;;;;;;;1.87;1.00;;;;;;;5.52;46.97;99141.84;5027803;28;20057;-88
2021/04/05 14:17:07;;;;;;;2.10;1.13;;;;;;;5.42;42.79;99135.09;4983566;28;20095;-90
2021/04/05 14:19:48;;;;;;;5.37;2.00;;;;;;;5.48;46.32;99142.81;4979804;28;20046;-88
2021/04/05 14:22:21;;;;;;;2.60;1.30;;;;;;;5.39;41.89;99132.56;5011203;28;20049;-89
2021/04/05 15:03:32;;;;;;;3.30;1.20;;;;;;;5.00;41.21;99146.53;4981613;28;20044;-88
2021/04/05 15:06:00;;;;;;;3.27;1.20;;;;;;;5.03;40.81;99151.69;4971066;28;20053;-88
2021/04/05 15:08:39;;;;;;;3.57;0.90;;;;;;;5.02;41.87;99155.19;4988454;28;20055;-89
2021/04/05 15:11:07;;;;;;;2.53;0.90;;;;;;;5.00;40.35;99154.38;4993846;28;20140;-89
2021/04/05 15:13:35;;;;;;;2.27;0.90;;;;;;;5.04;41.64;99166.50;4986042;28;20045;-88
2021/04/05 15:16:12;;;;;;;2.03;1.03;;;;;;;4.99;39.29;99176.22;4998595;28;20046;-87
2021/04/05 15:18:39;;;;;;;3.03;1.00;;;;;;;4.76;38.91;99179.31;4996621;28;20050;-89
2021/04/05 15:21:07;;;;;;;2.27;0.70;;;;;;;4.66;40.35;99176.91;5008521;28;20045;-89
2021/04/05 15:23:36;;;;;;;2.57;0.80;;;;;;;4.56;40.65;99170.16;5015029;28;20076;-90
2021/04/05 15:26:24;;;;;;;1.80;0.80;;;;;;;4.80;41.83;99201.06;5002696;28;20033;-89
2021/04/05 15:29:04;;;;;;;4.03;0.90;;;;;;;4.79;41.25;99181.00;4983854;28;20104;-89
2021/04/05 15:40:58;;;;;;;2.97;0.70;;;;;;;4.30;42.16;99199.41;5033315;28;20291;-88
2021/04/05 15:43:28;;;;;;;3.77;0.83;;;;;;;4.20;43.72;99201.31;4989666;28;20045;-89
2021/04/05 15:46:03;;;;;;;1.67;0.87;;;;;;;4.16;45.55;99199.66;5002201;28;20113;-89
2021/04/05 15:48:38;;;;;;;3.73;0.80;;;;;;;4.04;43.75;99189.44;5000194;28;20486;-90
2021/04/05 15:51:21;;;;;;;1.80;0.80;;;;;;;4.03;47.36;99198.13;5009732;28;20072;-89
2021/04/05 15:53:50;;;;;;;2.07;1.70;;;;;;;3.84;47.84;99219.34;5012012;28;20055;-89
2021/04/05 15:56:25;;;;;;;2.60;1.00;;;;;;;3.69;44.53;99214.38;5005770;28;20071;-89
2021/04/05 15:58:54;;;;;;;2.07;1.00;;;;;;;3.77;45.00;99235.16;4999676;28;20084;-90
2021/04/05 16:01:33;;;;;;;3.50;0.73;;;;;;;3.93;45.05;99226.19;4983340;28;20056;-89
2021/04/05 16:04:16;;;;;;;3.80;0.90;;;;;;;3.86;45.73;99217.56;4978511;28;20042;-90
2021/04/05 16:07:27;;;;;;;1.10;0.60;;;;;;;3.94;48.04;99231.38;4998005;28;20566;-89
2021/04/05 16:09:59;;;;;;;2.97;0.70;;;;;;;3.68;46.40;99231.78;5012100;28;20042;-89
2021/04/05 16:13:15;;;;;;;4.70;0.67;;;;;;;3.62;48.60;99242.34;5000520;28;20049;-89
2021/04/05 16:15:44;;;;;;;3.03;0.77;;;;;;;3.67;48.08;99247.50;5031079;28;20430;-89
2021/04/05 16:18:26;;;;;;;1.80;0.60;;;;;;;3.73;49.70;99247.41;4995548;28;20053;-89
2021/04/05 16:21:05;;;;;;;2.23;0.70;;;;;;;3.47;49.52;99247.81;4987093;28;20384;-89
2021/04/05 16:23:33;;;;;;;0.93;0.60;;;;;;;3.40;51.88;99277.47;4989753;28;20049;-90